Time;durP1;ratioP1;P1;durP2;ratioP2;P2;SDS_P1;SDS_P2;PMS_P1;PMS_P2;Temp;Humidity;BMP_temperature;BMP_pressure;BME280_temperature;BME280_humidity;BME280_pressure;Samples;Min_cycle;Max_cycle;Signal;HPM_P1;HPM_P2
2023/05/13 00:01:25;;;;;;;1.57;0.80;;;;;;;19.77;68.02;100269.53;5066461;28;20220;-64
2023/05/13 00:03:50;;;;;;;1.90;1.00;;;;;;;19.77;68.29;100275.28;5067884;28;20205;-64
2023/05/13 00:06:15;;;;;;;1.77;0.90;;;;;;;19.77;68.56;100278.13;5066870;28;20183;-64
2023/05/13 00:08:41;;;;;;;2.07;1.20;;;;;;;19.78;67.99;100270.38;5050309;28;20199;-64
2023/05/13 00:11:06;;;;;;;1.90;1.00;;;;;;;19.77;68.07;100281.00;5069186;28;20167;-64
2023/05/13 00:13:32;;;;;;;2.10;1.13;;;;;;;19.78;68.22;100284.69;5068768;28;20252;-64
2023/05/13 00:15:57;;;;;;;1.80;1.00;;;;;;;19.77;68.03;100281.00;5049966;28;20233;-65
2023/05/13 00:18:23;;;;;;;3.10;1.10;;;;;;;19.77;68.58;100285.94;5065784;28;20264;-64
2023/05/13 00:20:48;;;;;;;3.13;0.93;;;;;;;19.76;68.00;100285.09;5068572;28;20214;-64
2023/05/13 00:23:14;;;;;;;1.27;0.60;;;;;;;19.76;67.97;100279.34;5070446;28;20186;-64
2023/05/13 00:25:42;;;;;;;1.53;0.90;;;;;;;19.76;68.09;100279.34;5067077;28;20664;-64
2023/05/13 00:28:08;;;;;;;2.73;1.30;;;;;;;19.77;68.29;100274.47;5068184;28;20409;-64
2023/05/13 00:30:33;;;;;;;2.80;1.13;;;;;;;19.76;67.97;100285.09;5068447;28;20432;-64
2023/05/13 00:32:59;;;;;;;1.77;1.10;;;;;;;19.76;68.13;100270.75;5066657;28;20191;-64
2023/05/13 00:35:24;;;;;;;1.50;0.83;;;;;;;19.76;68.11;100278.56;5049236;28;20172;-64
2023/05/13 00:37:50;;;;;;;1.60;0.90;;;;;;;19.77;68.12;100277.31;5067048;28;20179;-64
2023/05/13 00:40:19;;;;;;;1.87;1.20;;;;;;;19.75;67.95;100277.72;5067843;28;20195;-64
2023/05/13 00:42:45;;;;;;;1.90;1.10;;;;;;;19.75;68.06;100263.38;5067873;28;20420;-64
2023/05/13 00:45:10;;;;;;;1.97;1.13;;;;;;;19.74;68.09;100270.34;5048382;28;20488;-64
2023/05/13 00:47:36;;;;;;;2.50;1.27;;;;;;;19.75;68.31;100269.13;5057966;28;20546;-64
2023/05/13 00:50:02;;;;;;;1.60;0.90;;;;;;;19.74;68.16;100267.47;5020449;28;20187;-64
2023/05/13 00:52:28;;;;;;;1.80;1.17;;;;;;;19.74;68.16;100276.06;5067944;28;20417;-64
2023/05/13 00:54:53;;;;;;;1.77;1.00;;;;;;;19.75;67.99;100277.72;5067868;28;20229;-64
2023/05/13 00:57:18;;;;;;;1.60;0.93;;;;;;;19.74;68.15;100276.06;5066895;28;20603;-64
2023/05/13 00:59:44;;;;;;;2.13;1.00;;;;;;;19.74;67.96;100276.06;5050077;28;20542;-64
2023/05/13 01:02:30;;;;;;;1.70;0.90;;;;;;;19.75;68.19;100276.88;5070195;28;20167;-64
2023/05/13 01:04:59;;;;;;;1.90;0.93;;;;;;;19.74;67.97;100287.53;5048191;28;20190;-64
2023/05/13 01:07:57;;;;;;;1.80;1.00;;;;;;;19.74;67.82;100287.53;5064366;28;20414;-64
2023/05/13 01:10:39;;;;;;;5.40;2.20;;;;;;;19.74;68.00;100287.53;5022152;28;20425;-64
2023/05/13 01:13:10;;;;;;;2.33;1.00;;;;;;;19.74;68.12;100287.53;5029690;28;20410;-65
2023/05/13 01:15:44;;;;;;;1.70;0.90;;;;;;;19.74;68.00;100290.38;5029670;28;20445;-64
2023/05/13 01:18:12;;;;;;;1.50;0.87;;;;;;;19.74;68.03;100295.28;5046245;28;20487;-64
2023/05/13 01:20:40;;;;;;;3.60;0.80;;;;;;;19.74;68.18;100292.41;5049554;28;20449;-64
2023/05/13 01:23:05;;;;;;;1.70;0.93;;;;;;;19.73;67.93;100291.63;5064889;28;20982;-64
2023/05/13 01:25:31;;;;;;;1.77;1.03;;;;;;;19.73;68.02;100293.63;5067157;28;20421;-64
2023/05/13 01:27:56;;;;;;;1.70;0.90;;;;;;;19.74;67.97;100290.38;5068312;28;20179;-64
2023/05/13 01:30:22;;;;;;;2.00;1.10;;;;;;;19.74;68.05;100296.13;5070586;28;20186;-64
2023/05/13 01:32:48;;;;;;;1.67;1.00;;;;;;;19.74;67.96;100298.16;5052149;28;20910;-65
2023/05/13 01:35:13;;;;;;;1.70;0.90;;;;;;;19.73;68.12;100303.06;5036647;28;20194;-64
2023/05/13 01:37:39;;;;;;;1.70;1.00;;;;;;;19.72;68.14;100304.25;5053203;28;20549;-65
2023/05/13 01:40:05;;;;;;;2.30;1.00;;;;;;;19.73;68.11;100307.97;5053277;28;20198;-64
2023/05/13 01:42:33;;;;;;;1.70;1.00;;;;;;;19.72;67.95;100303.44;5052203;28;20175;-64
2023/05/13 01:44:58;;;;;;;2.00;1.10;;;;;;;19.72;67.93;100304.25;5071133;28;20543;-65
2023/05/13 01:47:24;;;;;;;1.90;0.90;;;;;;;19.72;68.00;100307.13;5069755;28;20436;-64
2023/05/13 01:49:49;;;;;;;1.70;0.87;;;;;;;19.72;68.05;100307.13;5071125;28;20183;-65
2023/05/13 01:52:14;;;;;;;1.87;1.10;;;;;;;19.72;68.09;100307.13;5070130;28;20163;-64
2023/05/13 01:54:40;;;;;;;1.47;0.80;;;;;;;19.71;68.18;100304.69;5070471;28;20179;-64
2023/05/13 01:57:05;;;;;;;1.53;0.83;;;;;;;19.71;68.06;100305.47;5070674;28;20500;-64
2023/05/13 01:59:31;;;;;;;2.07;1.10;;;;;;;19.71;68.20;100311.22;5070792;28;20205;-64
2023/05/13 02:01:56;;;;;;;2.33;0.90;;;;;;;19.72;68.12;100317.78;5068735;28;20610;-64
2023/05/13 02:04:22;;;;;;;1.80;0.90;;;;;;;19.71;67.93;100311.22;5069122;28;20261;-65
2023/05/13 02:06:47;;;;;;;2.20;1.20;;;;;;;19.70;68.45;100315.28;5051555;28;20171;-64
2023/05/13 02:09:13;;;;;;;1.40;0.70;;;;;;;19.70;68.00;100315.28;5069923;28;20981;-65
2023/05/13 02:11:38;;;;;;;1.60;1.00;;;;;;;19.69;68.23;100313.66;5068618;28;20167;-64
2023/05/13 02:14:04;;;;;;;2.03;1.20;;;;;;;19.70;68.09;100311.59;5072491;28;20179;-64
2023/05/13 02:16:30;;;;;;;1.60;0.97;;;;;;;19.69;68.07;100307.91;5068089;28;20175;-64
2023/05/13 02:18:55;;;;;;;1.77;1.00;;;;;;;19.69;68.03;100312.81;5067429;28;20199;-64
2023/05/13 02:21:21;;;;;;;1.77;1.00;;;;;;;19.69;68.21;100302.19;5070063;28;20199;-64
2023/05/13 02:23:46;;;;;;;1.60;0.90;;;;;;;19.70;67.98;100308.72;5070586;28;20590;-65
2023/05/13 02:26:11;;;;;;;1.93;1.20;;;;;;;19.70;68.14;100308.72;5068694;28;20638;-64
2023/05/13 02:28:37;;;;;;;1.53;0.80;;;;;;;19.69;68.05;100316.50;5072770;28;20601;-64
2023/05/13 02:31:02;;;;;;;1.73;1.00;;;;;;;19.69;68.09;100301.34;5067207;28;20180;-64
2023/05/13 02:33:28;;;;;;;2.93;0.93;;;;;;;19.69;68.16;100298.50;5066528;28;20183;-64
2023/05/13 02:35:53;;;;;;;1.43;0.80;;;;;;;19.69;68.25;100301.34;5068879;28;20194;-65
2023/05/13 02:38:19;;;;;;;1.40;0.77;;;;;;;19.68;68.02;100294.81;5070152;28;20166;-64
2023/05/13 02:40:44;;;;;;;1.67;1.00;;;;;;;19.69;68.04;100304.22;5069159;28;20207;-64
2023/05/13 02:43:09;;;;;;;1.67;0.93;;;;;;;19.68;68.05;100297.69;5069099;28;20175;-64
2023/05/13 02:45:35;;;;;;;1.30;0.70;;;;;;;19.66;67.86;100291.50;5067810;28;20400;-64
2023/05/13 02:48:00;;;;;;;1.53;0.87;;;;;;;19.67;67.98;100298.88;5069104;28;20167;-65
2023/05/13 02:50:26;;;;;;;1.80;1.00;;;;;;;19.67;68.12;100301.75;5068354;28;20187;-64
2023/05/13 02:52:51;;;;;;;1.67;0.90;;;;;;;19.67;68.05;100301.75;5071711;28;20187;-64
2023/05/13 02:55:17;;;;;;;2.57;0.90;;;;;;;19.67;67.92;100307.47;5069940;28;20183;-62
2023/05/13 02:57:42;;;;;;;2.10;0.97;;;;;;;19.67;67.87;100309.53;5070012;28;20175;-62
2023/05/13 03:00:08;;;;;;;1.60;0.80;;;;;;;19.67;67.83;100301.75;5069106;28;20199;-62
2023/05/13 03:02:34;;;;;;;1.70;0.90;;;;;;;19.67;67.92;100304.59;5069865;28;20179;-62
2023/05/13 03:04:59;;;;;;;1.80;0.90;;;;;;;19.67;67.81;100298.06;5069254;28;20512;-62
2023/05/13 03:07:25;;;;;;;1.70;1.07;;;;;;;19.66;67.91;100302.97;5069375;28;20586;-63
2023/05/13 03:09:50;;;;;;;1.87;1.03;;;;;;;19.67;68.03;100303.78;5068535;28;20207;-62
2023/05/13 03:12:16;;;;;;;1.50;0.90;;;;;;;19.66;68.00;100305.81;5069784;28;20182;-62
2023/05/13 03:14:43;;;;;;;1.60;1.00;;;;;;;19.67;67.99;100309.53;5049333;28;20183;-62
2023/05/13 03:17:08;;;;;;;1.63;0.90;;;;;;;19.67;68.06;100306.66;5069235;28;20226;-62
2023/05/13 03:19:35;;;;;;;1.93;0.90;;;;;;;19.66;67.97;100311.56;5051055;28;20457;-62
2023/05/13 03:22:00;;;;;;;1.73;0.90;;;;;;;19.65;67.93;100307.03;5068512;28;20658;-62
2023/05/13 03:24:26;;;;;;;2.13;1.10;;;;;;;19.65;68.05;100309.91;5034980;28;20409;-62
2023/05/13 03:26:51;;;;;;;1.60;0.90;;;;;;;19.64;67.91;100314.00;5069205;28;20175;-62
2023/05/13 03:29:17;;;;;;;2.50;1.30;;;;;;;19.65;67.89;100311.94;5051225;28;20178;-62
2023/05/13 03:31:42;;;;;;;1.50;0.80;;;;;;;19.65;68.08;100311.94;5050116;28;20183;-62
2023/05/13 03:34:07;;;;;;;1.57;1.00;;;;;;;19.65;67.94;100318.50;5069285;28;20166;-62
2023/05/13 03:36:33;;;;;;;1.50;0.70;;;;;;;19.64;68.10;100321.75;5073026;28;20264;-62
2023/05/13 03:38:58;;;;;;;1.60;1.00;;;;;;;19.64;67.95;100325.44;5069193;28;20194;-62
2023/05/13 03:41:24;;;;;;;1.40;0.70;;;;;;;19.65;68.19;100323.38;5069239;28;20205;-63
2023/05/13 03:43:50;;;;;;;2.40;0.93;;;;;;;19.65;68.26;100324.22;5050851;28;20296;-63
2023/05/13 03:46:15;;;;;;;1.90;0.90;;;;;;;19.65;68.20;100329.94;5067916;28;20182;-63
2023/05/13 03:48:41;;;;;;;1.53;0.97;;;;;;;19.65;67.85;100323.38;5068477;28;20170;-63
2023/05/13 03:51:07;;;;;;;5.03;1.20;;;;;;;19.64;68.03;100328.31;5067091;28;20245;-63
2023/05/13 03:53:32;;;;;;;2.40;1.10;;;;;;;19.64;67.93;100333.19;5066442;28;20413;-63
2023/05/13 03:55:58;;;;;;;1.57;0.80;;;;;;;19.64;68.02;100334.03;5067088;28;20176;-63
2023/05/13 03:58:23;;;;;;;2.00;0.93;;;;;;;19.63;67.94;100329.53;5064135;28;20187;-63
2023/05/13 04:00:49;;;;;;;1.70;1.00;;;;;;;19.63;67.98;100326.66;5065342;28;20203;-63
2023/05/13 04:03:17;;;;;;;1.80;0.90;;;;;;;19.63;68.13;100326.66;5066886;28;20182;-63
2023/05/13 04:05:46;;;;;;;1.90;1.17;;;;;;;19.63;67.94;100331.56;5066381;28;20187;-63
2023/05/13 04:08:11;;;;;;;2.40;0.93;;;;;;;19.64;67.90;100334.03;5050183;28;20966;-63
2023/05/13 04:10:37;;;;;;;2.50;0.73;;;;;;;19.64;68.00;100333.19;5050527;28;20414;-63
2023/05/13 04:13:02;;;;;;;1.53;0.90;;;;;;;19.64;67.96;100333.19;5048775;28;20281;-63
2023/05/13 04:15:28;;;;;;;1.63;0.80;;;;;;;19.63;68.10;100334.41;5050121;28;20163;-63
2023/05/13 04:17:53;;;;;;;1.87;1.07;;;;;;;19.62;67.84;100333.59;5049905;28;20227;-63
2023/05/13 04:20:19;;;;;;;1.63;1.00;;;;;;;19.62;67.96;100350.75;5051418;28;20210;-63
2023/05/13 04:22:44;;;;;;;1.90;1.00;;;;;;;19.62;67.86;100347.91;5068300;28;20170;-63
2023/05/13 04:25:10;;;;;;;1.60;0.80;;;;;;;19.62;68.10;100349.97;5048703;28;20179;-63
2023/05/13 04:27:35;;;;;;;1.70;1.00;;;;;;;19.62;67.98;100341.38;5068424;28;20171;-63
2023/05/13 04:30:01;;;;;;;1.70;0.90;;;;;;;19.63;67.95;100358.16;5067804;28;20175;-63
2023/05/13 04:32:26;;;;;;;1.80;1.00;;;;;;;19.62;67.96;100353.63;5074073;28;20198;-63
2023/05/13 04:34:52;;;;;;;1.77;0.93;;;;;;;19.62;67.94;100350.75;5067404;28;20163;-63
2023/05/13 04:37:17;;;;;;;1.60;0.90;;;;;;;19.63;67.82;100357.34;5050081;28;20174;-63
2023/05/13 04:39:46;;;;;;;3.00;0.87;;;;;;;19.63;68.05;100348.75;5067691;28;20202;-63
2023/05/13 04:42:15;;;;;;;1.50;0.87;;;;;;;19.62;67.82;100352.81;5048912;28;20190;-63
2023/05/13 04:44:40;;;;;;;2.13;1.20;;;;;;;19.62;67.75;100359.34;5068067;28;20412;-63
2023/05/13 04:47:06;;;;;;;1.73;1.10;;;;;;;19.63;67.97;100361.03;5067726;28;20414;-63
2023/05/13 04:49:31;;;;;;;1.50;0.87;;;;;;;19.63;67.95;100360.19;5067679;28;20178;-63
2023/05/13 04:51:57;;;;;;;1.70;0.80;;;;;;;19.63;67.73;100363.06;5066912;28;20191;-63
2023/05/13 04:54:22;;;;;;;2.50;1.00;;;;;;;19.62;67.78;100365.09;5068350;28;20217;-63
2023/05/13 04:56:48;;;;;;;1.83;0.97;;;;;;;19.66;67.82;100365.16;5068615;28;20195;-63
2023/05/13 04:59:13;;;;;;;1.47;0.83;;;;;;;19.66;67.62;100363.09;5067966;28;20170;-63
2023/05/13 05:01:39;;;;;;;1.70;1.00;;;;;;;19.67;67.63;100367.63;5066819;28;20202;-63
2023/05/13 05:04:04;;;;;;;1.83;1.07;;;;;;;19.66;67.61;100365.16;5067404;28;20179;-63
2023/05/13 05:06:31;;;;;;;3.40;0.93;;;;;;;19.66;67.70;100365.16;5069410;28;20687;-62
2023/05/13 05:08:57;;;;;;;1.50;0.90;;;;;;;19.65;67.84;100370.06;5069678;28;20229;-63
2023/05/13 05:11:22;;;;;;;3.03;0.87;;;;;;;19.65;67.73;100384.38;5068072;28;20881;-63
2023/05/13 05:13:47;;;;;;;1.77;1.00;;;;;;;19.66;67.70;100368.84;5067178;28;20266;-63
2023/05/13 05:16:13;;;;;;;1.80;0.90;;;;;;;19.67;67.55;100375.41;5067782;28;20159;-63
2023/05/13 05:18:40;;;;;;;1.70;1.00;;;;;;;19.66;67.73;100380.28;5065829;28;20713;-63
2023/05/13 05:21:06;;;;;;;1.70;0.93;;;;;;;19.65;67.65;100375.78;5049646;28;20246;-63
2023/05/13 05:23:31;;;;;;;1.63;0.97;;;;;;;19.66;67.53;100382.34;5049671;28;20490;-63
2023/05/13 05:25:59;;;;;;;1.80;0.90;;;;;;;19.65;67.69;100378.66;5066658;28;20972;-64
2023/05/13 05:28:24;;;;;;;1.53;0.90;;;;;;;19.66;67.67;100383.16;5067414;28;20611;-63
2023/05/13 05:30:50;;;;;;;1.87;1.07;;;;;;;19.65;67.67;100380.66;5066522;28;20441;-63
2023/05/13 05:33:16;;;;;;;4.70;0.80;;;;;;;19.64;67.67;100382.72;5049681;28;20768;-63
2023/05/13 05:35:42;;;;;;;1.70;1.00;;;;;;;19.64;67.82;100388.47;5049362;28;20284;-63
2023/05/13 05:38:07;;;;;;;2.00;1.23;;;;;;;19.64;67.79;100399.91;5067539;28;20406;-63
2023/05/13 05:40:34;;;;;;;3.13;0.80;;;;;;;19.65;67.77;100387.25;5050503;28;20194;-63
2023/05/13 05:43:00;;;;;;;2.17;0.90;;;;;;;19.65;67.62;100390.09;5032808;28;20171;-63
2023/05/13 05:45:25;;;;;;;1.70;1.10;;;;;;;19.65;67.72;100397.84;5067429;28;20743;-63
2023/05/13 05:47:52;;;;;;;1.40;0.80;;;;;;;19.63;67.58;100389.69;5066205;28;20190;-63
2023/05/13 05:50:18;;;;;;;1.77;1.03;;;;;;;19.63;67.61;100401.13;5067391;28;20511;-63
2023/05/13 05:52:44;;;;;;;2.20;1.07;;;;;;;19.64;67.64;100397.06;5049062;28;20409;-63
2023/05/13 05:55:09;;;;;;;1.70;1.10;;;;;;;19.64;67.62;100397.06;5065886;28;20676;-63
2023/05/13 05:57:34;;;;;;;1.90;1.13;;;;;;;19.64;67.70;100397.06;5067487;28;20550;-64
2023/05/13 06:00:00;;;;;;;4.87;1.00;;;;;;;19.65;67.61;100392.13;5031885;28;20568;-63
2023/05/13 06:02:25;;;;;;;1.77;0.97;;;;;;;19.64;67.60;100391.31;5031432;28;20644;-63
2023/05/13 06:04:51;;;;;;;1.87;1.20;;;;;;;19.64;67.64;100396.22;5066434;28;20591;-63
2023/05/13 06:07:16;;;;;;;1.93;0.90;;;;;;;19.63;67.61;100392.53;5067064;28;20528;-63
2023/05/13 06:09:42;;;;;;;2.13;1.23;;;;;;;19.64;67.50;100391.31;5067390;28;20513;-63
2023/05/13 06:12:07;;;;;;;1.83;1.03;;;;;;;19.65;67.55;100401.56;5066146;28;20563;-63
2023/05/13 06:14:33;;;;;;;1.90;1.23;;;;;;;19.64;67.67;100394.19;5066437;28;20214;-63
2023/05/13 06:16:58;;;;;;;1.70;0.90;;;;;;;19.64;67.55;100397.06;5064274;28;20234;-63
2023/05/13 06:19:24;;;;;;;1.40;0.80;;;;;;;19.63;67.77;100401.13;5072625;28;20849;-63
2023/05/13 06:21:49;;;;;;;1.40;0.73;;;;;;;19.64;67.73;100404.81;5082215;28;20565;-63
2023/05/13 06:24:15;;;;;;;3.00;1.00;;;;;;;19.64;67.63;100408.50;5070952;28;20183;-64
2023/05/13 06:26:40;;;;;;;1.50;0.90;;;;;;;19.64;67.56;100405.63;5071635;28;20625;-64
2023/05/13 06:29:06;;;;;;;1.70;0.90;;;;;;;19.63;67.77;100412.59;5069682;28;20183;-64
2023/05/13 06:31:31;;;;;;;1.73;0.93;;;;;;;19.63;67.54;100412.59;5070754;28;20210;-64
2023/05/13 06:33:57;;;;;;;2.73;0.90;;;;;;;19.64;67.57;100410.53;5069068;28;20186;-64
2023/05/13 06:36:22;;;;;;;1.83;0.90;;;;;;;19.63;67.57;100409.72;5089593;28;20183;-64
2023/05/13 06:38:47;;;;;;;2.10;1.03;;;;;;;19.63;67.59;100409.72;5070861;28;20183;-64
2023/05/13 06:41:14;;;;;;;1.63;0.90;;;;;;;19.64;67.91;100413.41;5091785;28;20191;-64
2023/05/13 06:43:40;;;;;;;1.67;1.00;;;;;;;19.63;67.57;100406.84;5092461;28;20183;-64
2023/05/13 06:46:05;;;;;;;1.83;0.90;;;;;;;19.63;67.66;100406.84;5080583;28;20834;-64
2023/05/13 06:48:31;;;;;;;1.73;0.87;;;;;;;19.63;67.55;100412.59;5078590;28;20459;-64
2023/05/13 06:50:56;;;;;;;1.40;0.80;;;;;;;19.63;67.50;100411.75;5090999;28;20167;-64
2023/05/13 06:53:21;;;;;;;2.13;1.10;;;;;;;19.62;67.68;100413.78;5088153;28;20167;-64
2023/05/13 06:55:47;;;;;;;1.50;0.80;;;;;;;19.62;67.52;100412.97;5089012;28;20412;-64
2023/05/13 06:58:12;;;;;;;1.77;1.00;;;;;;;19.61;67.51;100409.25;5061193;28;20167;-64
2023/05/13 07:00:39;;;;;;;1.50;0.90;;;;;;;19.62;67.61;100422.38;5070891;28;20190;-64
2023/05/13 07:03:05;;;;;;;1.50;0.80;;;;;;;19.62;67.64;100416.63;5074976;28;20186;-64
2023/05/13 07:05:31;;;;;;;1.93;0.97;;;;;;;19.63;67.87;100417.47;5073078;28;20441;-64
2023/05/13 07:07:57;;;;;;;1.60;1.10;;;;;;;19.62;68.10;100416.63;5089737;28;20493;-64
2023/05/13 07:10:22;;;;;;;1.73;1.00;;;;;;;19.61;68.16;100417.84;5091240;28;20436;-64
2023/05/13 07:12:48;;;;;;;1.60;1.00;;;;;;;19.59;67.69;100408.84;5082221;28;20183;-64
2023/05/13 07:15:13;;;;;;;1.50;0.90;;;;;;;19.60;67.83;100418.22;5054300;28;20471;-64
2023/05/13 07:17:39;;;;;;;1.87;1.00;;;;;;;19.59;68.05;100420.28;5071664;28;20530;-64
2023/05/13 07:20:05;;;;;;;1.70;1.20;;;;;;;19.58;68.06;100414.94;5091108;28;20210;-65
2023/05/13 07:22:31;;;;;;;1.70;0.90;;;;;;;19.59;67.93;100411.69;5073847;28;20175;-64
2023/05/13 07:24:56;;;;;;;1.63;0.90;;;;;;;19.58;68.36;100414.94;5091634;28;20413;-64
2023/05/13 07:27:22;;;;;;;1.60;0.80;;;;;;;19.61;67.84;100403.53;5091123;28;20151;-64
2023/05/13 07:29:47;;;;;;;1.60;0.93;;;;;;;19.60;67.61;100412.50;5094102;28;20425;-64
2023/05/13 07:32:13;;;;;;;2.33;1.00;;;;;;;19.59;68.02;100405.97;5094241;28;20158;-64
2023/05/13 07:34:38;;;;;;;1.70;0.93;;;;;;;19.61;67.84;100412.13;5092965;28;20163;-64
2023/05/13 07:37:04;;;;;;;1.93;1.00;;;;;;;19.59;67.87;100413.72;5081404;28;20159;-64
2023/05/13 07:39:29;;;;;;;1.97;1.00;;;;;;;19.59;68.09;100405.13;5076426;28;20175;-64
2023/05/13 07:41:55;;;;;;;1.70;0.80;;;;;;;19.60;67.79;100418.22;5093183;28;20227;-64
2023/05/13 07:44:20;;;;;;;1.97;1.00;;;;;;;19.59;68.02;100417.44;5095596;28;20155;-64
2023/05/13 07:46:47;;;;;;;1.70;1.00;;;;;;;19.58;67.83;100418.66;5091270;28;20275;-64
2023/05/13 07:49:12;;;;;;;1.60;0.87;;;;;;;19.58;67.70;100415.78;5092872;28;20179;-64
2023/05/13 07:51:37;;;;;;;2.20;1.10;;;;;;;19.58;68.01;100424.38;5058752;28;20428;-64
2023/05/13 07:54:03;;;;;;;1.47;0.90;;;;;;;19.58;67.99;100421.50;5056139;28;20228;-64
2023/05/13 07:56:29;;;;;;;2.17;1.00;;;;;;;19.57;67.86;100416.97;5073412;28;20171;-64
2023/05/13 07:58:54;;;;;;;1.80;0.90;;;;;;;19.59;67.74;100416.59;5091083;28;20175;-64
2023/05/13 08:01:20;;;;;;;1.63;0.90;;;;;;;19.59;67.71;100420.28;5078737;28;20509;-64
2023/05/13 08:03:45;;;;;;;1.97;1.00;;;;;;;19.62;67.71;100407.25;5053312;28;20467;-64
2023/05/13 08:06:11;;;;;;;1.60;0.90;;;;;;;19.62;67.76;100410.91;5083466;28;20166;-64
2023/05/13 08:08:36;;;;;;;2.43;1.07;;;;;;;19.62;67.58;100412.97;5091434;28;20210;-64
2023/05/13 08:11:02;;;;;;;2.33;0.90;;;;;;;19.62;67.75;100424.44;5092035;28;20171;-64
2023/05/13 08:13:27;;;;;;;1.80;1.00;;;;;;;19.61;67.71;100415.00;5073311;28;20190;-64
2023/05/13 08:15:52;;;;;;;1.73;0.93;;;;;;;19.60;67.79;100419.06;5091857;28;20185;-64
2023/05/13 08:18:18;;;;;;;1.37;0.70;;;;;;;19.60;67.80;100419.06;5091612;28;20223;-64
2023/05/13 08:20:44;;;;;;;1.90;0.93;;;;;;;19.62;67.47;100418.69;5092324;28;20207;-64
2023/05/13 08:23:09;;;;;;;1.40;0.80;;;;;;;19.63;67.81;100423.22;5077490;28;20167;-64
2023/05/13 08:25:35;;;;;;;2.13;1.10;;;;;;;19.62;67.78;100422.38;5075277;28;20175;-64
2023/05/13 08:28:01;;;;;;;1.90;0.97;;;;;;;19.62;67.85;100421.56;5102597;28;20171;-64
2023/05/13 08:30:26;;;;;;;1.80;1.07;;;;;;;19.61;67.74;100414.19;5091229;28;20344;-64
2023/05/13 08:32:52;;;;;;;2.20;0.90;;;;;;;19.61;67.92;100417.06;5092377;28;20413;-64
2023/05/13 08:35:17;;;;;;;5.33;0.93;;;;;;;19.60;67.68;100418.22;5090581;28;20178;-64
2023/05/13 08:37:43;;;;;;;2.27;0.97;;;;;;;19.62;67.95;100425.22;5092638;28;20219;-64
2023/05/13 08:40:09;;;;;;;1.77;0.80;;;;;;;19.63;67.56;100423.22;5091606;28;20199;-64
2023/05/13 08:42:37;;;;;;;1.80;1.10;;;;;;;19.62;67.56;100424.44;5075251;28;20171;-64
2023/05/13 08:45:06;;;;;;;1.60;0.90;;;;;;;19.62;67.66;100428.09;5092973;28;20425;-64
2023/05/13 08:47:39;;;;;;;1.80;1.07;;;;;;;19.61;67.70;100422.78;5072678;28;20437;-64
2023/05/13 08:50:05;;;;;;;1.50;0.80;;;;;;;19.62;67.52;100416.63;5091407;28;20444;-64
2023/05/13 08:52:30;;;;;;;2.13;1.20;;;;;;;19.62;67.53;100419.50;5074828;28;20413;-64
2023/05/13 08:54:57;;;;;;;2.17;0.90;;;;;;;19.63;67.58;100417.47;5091167;28;20452;-64
2023/05/13 08:57:23;;;;;;;5.43;0.90;;;;;;;19.63;67.41;100426.91;5057832;28;20171;-64
2023/05/13 08:59:48;;;;;;;2.80;1.10;;;;;;;19.62;67.64;100421.56;5090720;28;20444;-64
2023/05/13 09:02:14;;;;;;;1.70;0.90;;;;;;;19.63;67.62;100426.06;5090784;28;20179;-64
2023/05/13 09:04:40;;;;;;;1.57;0.90;;;;;;;19.63;67.65;100429.78;5091723;28;20151;-64
2023/05/13 09:07:06;;;;;;;2.63;1.20;;;;;;;19.62;67.52;100428.09;5091216;28;20167;-64
2023/05/13 09:09:32;;;;;;;1.70;1.00;;;;;;;19.62;67.47;100433.81;5058106;28;20448;-64
2023/05/13 09:11:57;;;;;;;2.10;0.93;;;;;;;19.63;67.63;100438.38;5092040;28;20151;-64
2023/05/13 09:14:28;;;;;;;1.70;1.10;;;;;;;19.63;67.64;100432.63;5053416;28;20180;-64
2023/05/13 09:16:55;;;;;;;1.67;1.00;;;;;;;19.63;67.67;100441.22;5069078;28;20246;-64
2023/05/13 09:19:22;;;;;;;1.83;1.03;;;;;;;19.62;67.72;100439.56;5071608;28;20446;-64
2023/05/13 09:21:47;;;;;;;2.80;0.90;;;;;;;19.62;67.68;100439.56;5058041;28;20449;-64
2023/05/13 09:24:17;;;;;;;1.50;0.80;;;;;;;19.62;67.57;100433.81;5087461;28;20481;-64
2023/05/13 09:26:43;;;;;;;2.63;1.10;;;;;;;19.63;67.59;100429.78;5073095;28;20178;-64
2023/05/13 09:29:30;;;;;;;1.80;0.80;;;;;;;19.62;67.74;100439.56;5089683;28;20425;-64
2023/05/13 09:31:57;;;;;;;3.20;0.90;;;;;;;19.62;67.41;100430.97;5084413;28;20240;-64
2023/05/13 09:34:30;;;;;;;1.77;0.87;;;;;;;19.63;67.69;100434.66;5087804;28;20396;-64
2023/05/13 09:37:06;;;;;;;1.90;1.00;;;;;;;19.62;67.47;100439.56;5067131;28;20421;-64
2023/05/13 09:39:33;;;;;;;1.80;1.00;;;;;;;19.63;67.73;100429.78;5085862;28;20423;-64
2023/05/13 09:42:02;;;;;;;2.00;1.10;;;;;;;19.62;67.56;100430.97;5091343;28;20386;-64
2023/05/13 09:44:28;;;;;;;2.50;0.80;;;;;;;19.63;67.35;100434.66;5073860;28;20434;-64
2023/05/13 09:46:53;;;;;;;2.10;1.00;;;;;;;19.63;67.55;100443.25;5070145;28;20480;-64
2023/05/13 09:49:25;;;;;;;1.60;0.97;;;;;;;19.62;67.31;100433.81;5081089;28;20174;-64
2023/05/13 09:51:51;;;;;;;1.57;0.97;;;;;;;19.62;67.78;100445.28;5067495;28;20191;-64
2023/05/13 09:54:16;;;;;;;3.23;1.03;;;;;;;19.62;67.79;100441.59;5075663;28;20439;-63
2023/05/13 09:56:41;;;;;;;3.53;1.60;;;;;;;19.60;67.49;100435.41;5072661;28;20240;-64
2023/05/13 09:59:07;;;;;;;7.17;1.90;;;;;;;19.61;66.88;100439.97;5085469;28;20182;-63
2023/05/13 10:01:33;;;;;;;5.57;2.10;;;;;;;19.61;66.30;100437.91;5089476;28;20505;-64
2023/05/13 10:03:59;;;;;;;3.47;1.70;;;;;;;19.59;65.95;100434.63;5068333;28;20172;-64
2023/05/13 10:06:29;;;;;;;5.50;2.10;;;;;;;19.61;65.18;100445.69;5082877;28;20417;-64
2023/05/13 10:08:58;;;;;;;7.33;2.43;;;;;;;19.62;64.56;100438.75;5088322;28;20207;-64
2023/05/13 10:11:24;;;;;;;6.70;2.33;;;;;;;19.61;64.55;100435.03;5053425;28;20429;-64
2023/05/13 10:13:55;;;;;;;10.63;2.70;;;;;;;19.62;64.82;100439.56;5088550;28;20451;-64
2023/05/13 10:16:22;;;;;;;4.63;2.23;;;;;;;19.63;64.53;100446.97;5071110;28;20174;-64
2023/05/13 10:18:47;;;;;;;13.10;2.20;;;;;;;19.62;64.82;100439.56;5087628;28;20476;-65
2023/05/13 10:21:13;;;;;;;5.07;2.10;;;;;;;19.63;64.97;100441.22;5046634;28;20464;-64
2023/05/13 10:23:38;;;;;;;7.97;1.97;;;;;;;19.62;64.92;100439.56;5077736;28;20231;-64
2023/05/13 10:26:04;;;;;;;5.87;2.40;;;;;;;19.61;64.98;100437.91;5068715;28;20228;-64
2023/05/13 10:28:29;;;;;;;5.70;2.10;;;;;;;19.62;65.09;100439.56;5060229;28;20184;-64
2023/05/13 10:30:55;;;;;;;10.40;2.43;;;;;;;19.63;64.96;100441.22;5076676;28;20171;-64
2023/05/13 10:33:21;;;;;;;6.50;1.80;;;;;;;19.64;65.30;100436.31;5076892;28;20210;-64
2023/05/13 10:35:58;;;;;;;4.23;2.10;;;;;;;19.63;65.57;100441.22;5084861;28;20440;-64
2023/05/13 10:38:45;;;;;;;7.40;2.30;;;;;;;19.63;65.27;100437.53;5078073;28;20163;-64
2023/05/13 10:41:17;;;;;;;5.83;1.93;;;;;;;19.63;65.75;100441.22;5067804;28;20464;-64
2023/05/13 10:43:43;;;;;;;7.70;2.57;;;;;;;19.60;68.00;100435.41;5075589;28;20422;-64
2023/05/13 10:46:12;;;;;;;6.40;2.80;;;;;;;19.46;63.91;100432.34;5051161;28;20468;-64
2023/05/13 10:48:48;;;;;;;11.00;2.70;;;;;;;19.36;61.03;100430.94;5052960;28;20179;-64
2023/05/13 10:51:14;;;;;;;8.80;2.90;;;;;;;19.27;60.05;100429.56;5052427;28;20445;-64
2023/05/13 10:53:46;;;;;;;5.20;3.20;;;;;;;19.27;60.19;100433.25;5076054;28;20405;-64
2023/05/13 10:56:12;;;;;;;8.37;2.93;;;;;;;19.22;58.79;100436.41;5059779;28;20417;-64
2023/05/13 10:58:38;;;;;;;4.43;2.47;;;;;;;19.16;58.92;100437.91;5078963;28;20440;-64
2023/05/13 11:01:16;;;;;;;9.17;3.30;;;;;;;19.20;59.39;100438.81;5076552;28;20187;-64
2023/05/13 11:03:52;;;;;;;3.93;2.40;;;;;;;19.16;58.03;100443.66;5081773;28;20170;-64
2023/05/13 11:06:34;;;;;;;3.50;2.10;;;;;;;19.11;57.47;100441.09;5080925;28;20523;-64
2023/05/13 11:09:00;;;;;;;5.90;2.93;;;;;;;19.12;58.12;100437.03;5044007;28;20453;-64
2023/05/13 11:11:30;;;;;;;4.23;2.70;;;;;;;19.14;57.46;100442.38;5059375;28;20413;-64
2023/05/13 11:13:58;;;;;;;3.33;2.40;;;;;;;19.09;57.07;100434.94;5078571;28;20673;-64
2023/05/13 11:16:23;;;;;;;3.50;2.40;;;;;;;19.06;57.05;100432.84;5073245;28;20459;-64
2023/05/13 11:18:50;;;;;;;3.20;2.20;;;;;;;19.15;58.26;100429.72;5076643;28;21241;-64
2023/05/13 11:21:16;;;;;;;8.23;2.70;;;;;;;19.33;58.43;100437.47;5078248;28;20470;-63